Time;durP1;ratioP1;P1;durP2;ratioP2;P2;SDS_P1;SDS_P2;PMS_P1;PMS_P2;Temp;Humidity;BMP_temperature;BMP_pressure;BME280_temperature;BME280_humidity;BME280_pressure;Samples;Min_cycle;Max_cycle;Signal;HPM_P1;HPM_P2
2023/04/24 00:00:09;;;;;;;317.07;126.13;;;;;;;13.06;70.94;99430.78;346254;28;904;-75
2023/04/24 00:00:20;;;;;;;312.45;125.80;;;;;;;13.06;71.18;99431.63;345280;28;3317;-75
2023/04/24 00:00:31;;;;;;;316.95;128.82;;;;;;;13.07;70.91;99435.09;346137;28;4938;-75
2023/04/24 00:00:42;;;;;;;320.98;136.75;;;;;;;13.06;70.81;99433.41;346508;28;5192;-75
2023/04/24 00:00:52;;;;;;;327.43;139.33;;;;;;;13.04;70.98;99430.84;347392;28;1200;-75
2023/04/24 00:01:02;;;;;;;324.95;137.30;;;;;;;13.04;70.87;99430.00;348583;28;3465;-75
2023/04/24 00:01:13;;;;;;;320.97;130.77;;;;;;;13.00;70.97;99432.78;347448;28;876;-75
2023/04/24 00:01:23;;;;;;;313.20;126.90;;;;;;;13.03;70.99;99428.31;346025;28;1272;-75
2023/04/24 00:01:34;;;;;;;313.63;126.63;;;;;;;12.99;71.09;99441.63;344228;28;3687;-75
2023/04/24 00:01:44;;;;;;;314.52;127.65;;;;;;;13.02;70.72;99431.88;344107;28;5135;-75
2023/04/24 00:01:55;;;;;;;314.37;127.03;;;;;;;12.99;70.76;99433.75;346439;28;5245;-75
2023/04/24 00:02:06;;;;;;;317.02;127.82;;;;;;;13.00;70.81;99429.31;344874;28;1466;-75
2023/04/24 00:02:16;;;;;;;315.77;127.32;;;;;;;12.99;71.01;99433.75;344901;28;876;-75
2023/04/24 00:02:27;;;;;;;312.13;126.13;;;;;;;12.99;71.05;99433.75;343495;28;1013;-75
2023/04/24 00:02:38;;;;;;;311.90;127.60;;;;;;;12.99;70.77;99436.38;345071;28;3530;-75
2023/04/24 00:02:48;;;;;;;316.40;130.30;;;;;;;13.00;70.65;99437.19;345649;28;4716;-75
2023/04/24 00:02:59;;;;;;;315.90;129.32;;;;;;;13.00;70.82;99431.94;349138;28;1231;-75
2023/04/24 00:03:09;;;;;;;318.17;129.27;;;;;;;13.01;70.99;99438.91;350399;28;919;-75
2023/04/24 00:03:20;;;;;;;315.60;127.27;;;;;;;13.02;70.88;99437.13;346105;28;1295;-75
2023/04/24 00:03:32;;;;;;;314.58;127.72;;;;;;;13.05;70.70;99440.44;346702;28;3441;-75
2023/04/24 00:03:43;;;;;;;315.05;128.57;;;;;;;13.06;70.91;99433.41;344765;28;5149;-75
2023/04/24 00:03:53;;;;;;;315.87;128.87;;;;;;;13.04;70.72;99435.25;342385;28;3331;-75
2023/04/24 00:04:03;;;;;;;318.00;129.02;;;;;;;13.06;70.66;99436.03;342138;28;952;-75
2023/04/24 00:04:16;;;;;;;318.80;128.23;;;;;;;13.05;70.62;99436.97;343723;28;3319;-75
2023/04/24 00:04:26;;;;;;;315.73;124.55;;;;;;;13.05;70.63;99431.69;343417;28;1022;-75
2023/04/24 00:04:40;;;;;;;312.07;124.50;;;;;;;12.98;70.46;99426.81;342757;28;3519;-75
2023/04/24 00:04:50;;;;;;;314.65;128.57;;;;;;;13.06;70.49;99433.41;345585;28;6126;-75
2023/04/24 00:05:02;;;;;;;313.75;128.93;;;;;;;13.07;70.78;99435.09;346734;28;1103;-75
2023/04/24 00:05:13;;;;;;;316.27;127.57;;;;;;;13.07;70.51;99432.47;347912;28;1415;-75
2023/04/24 00:05:24;;;;;;;316.60;128.07;;;;;;;13.09;70.55;99443.75;346813;28;3367;-75
2023/04/24 00:05:34;;;;;;;316.00;128.35;;;;;;;13.08;70.80;99437.63;346043;28;1087;-75
2023/04/24 00:05:45;;;;;;;311.73;125.63;;;;;;;13.09;71.02;99438.50;342611;28;3427;-75
2023/04/24 00:05:55;;;;;;;315.42;126.10;;;;;;;13.08;70.88;99432.38;340711;28;3167;-74
2023/04/24 00:06:07;;;;;;;316.73;128.07;;;;;;;13.10;70.69;99435.78;341907;28;5081;-75
2023/04/24 00:06:18;;;;;;;318.46;129.36;;;;;;;13.09;71.41;99434.09;341973;28;3166;-75
2023/04/24 00:06:32;;;;;;;313.97;126.07;;;;;;;13.10;71.01;99440.19;342067;28;1984;-75
2023/04/24 00:06:43;;;;;;;309.58;122.10;;;;;;;13.11;71.30;99437.47;338436;29;2179;-75
2023/04/24 00:06:56;;;;;;;309.67;121.53;;;;;;;13.10;71.10;99438.41;335720;29;3181;-74
2023/04/24 00:07:07;;;;;;;310.88;122.57;;;;;;;13.08;71.22;99435.00;336839;29;1163;-75
2023/04/24 00:07:17;;;;;;;312.10;124.53;;;;;;;13.08;71.39;99442.03;331319;29;3443;-75
2023/04/24 00:07:28;;;;;;;312.23;127.33;;;;;;;13.07;71.35;99446.44;330242;29;4716;-75
2023/04/24 00:07:39;;;;;;;310.73;126.35;;;;;;;13.04;71.45;99435.25;330332;29;3233;-75
2023/04/24 00:07:53;;;;;;;316.38;128.15;;;;;;;13.04;71.28;99430.84;331650;29;1559;-75
2023/04/24 00:08:03;;;;;;;315.33;127.07;;;;;;;13.06;71.61;99442.13;331344;29;1917;-75
2023/04/24 00:08:14;;;;;;;311.90;126.03;;;;;;;13.06;71.58;99433.41;333241;29;1315;-75
2023/04/24 00:08:24;;;;;;;308.63;123.93;;;;;;;13.06;71.63;99438.66;333614;29;2116;-75
2023/04/24 00:08:35;;;;;;;309.55;124.57;;;;;;;13.04;71.51;99430.00;330116;29;4741;-75
2023/04/24 00:08:46;;;;;;;311.88;125.30;;;;;;;13.04;71.57;99432.63;330971;29;5249;-75
2023/04/24 00:08:56;;;;;;;314.53;127.23;;;;;;;13.00;71.67;99432.78;331428;29;2951;-75
2023/04/24 00:09:06;;;;;;;314.33;126.50;;;;;;;12.98;72.06;99429.44;333048;29;895;-75
2023/04/24 00:09:17;;;;;;;312.50;125.83;;;;;;;13.00;71.86;99430.16;334241;29;1889;-75
2023/04/24 00:09:27;;;;;;;311.83;126.05;;;;;;;12.98;71.82;99432.06;333595;29;3020;-75
2023/04/24 00:09:37;;;;;;;313.93;128.33;;;;;;;13.00;72.10;99434.56;334597;29;5123;-75
2023/04/24 00:09:48;;;;;;;315.50;127.63;;;;;;;12.98;72.11;99431.22;332617;29;3449;-75
2023/04/24 00:09:59;;;;;;;321.17;128.82;;;;;;;12.99;72.33;99439.00;331307;29;3390;-75
2023/04/24 00:10:09;;;;;;;319.10;127.60;;;;;;;12.98;72.34;99434.69;329403;30;824;-75
2023/04/24 00:10:20;;;;;;;314.45;125.47;;;;;;;12.98;72.47;99429.44;325728;30;1213;-75
2023/04/24 00:10:30;;;;;;;311.42;122.63;;;;;;;13.00;72.04;99440.69;322415;30;3359;-75
2023/04/24 00:10:41;;;;;;;312.13;123.07;;;;;;;13.03;72.12;99436.19;326481;30;3355;-75
2023/04/24 00:10:52;;;;;;;312.55;123.90;;;;;;;13.01;72.33;99436.28;322721;30;3336;-75
2023/04/24 00:11:03;;;;;;;316.75;127.57;;;;;;;13.03;72.13;99438.81;324996;30;5116;-75
2023/04/24 00:11:13;;;;;;;319.30;126.88;;;;;;;13.04;72.11;99435.25;325224;30;2208;-75
2023/04/24 00:11:23;;;;;;;314.30;124.20;;;;;;;13.04;72.19;99436.09;319678;30;1359;-75
2023/04/24 00:11:34;;;;;;;315.40;123.20;;;;;;;13.04;72.09;99436.09;323382;30;2340;-75
2023/04/24 00:11:44;;;;;;;312.77;126.70;;;;;;;13.05;72.16;99431.69;321493;30;4842;-75
2023/04/24 00:11:55;;;;;;;317.63;130.90;;;;;;;13.06;72.08;99433.41;321556;30;3275;-75
2023/04/24 00:12:06;;;;;;;321.70;133.68;;;;;;;13.04;72.20;99432.63;318396;31;2939;-75
2023/04/24 00:12:16;;;;;;;321.00;131.30;;;;;;;13.05;72.35;99431.69;317731;31;2563;-75
2023/04/24 00:12:27;;;;;;;314.45;128.35;;;;;;;13.06;71.98;99438.66;317109;31;1414;-75
2023/04/24 00:12:37;;;;;;;311.63;125.90;;;;;;;13.06;72.31;99438.66;314869;31;1799;-75
2023/04/24 00:12:48;;;;;;;314.65;126.00;;;;;;;13.06;72.09;99433.41;311059;31;4195;-75
2023/04/24 00:12:58;;;;;;;317.80;127.37;;;;;;;13.08;72.33;99434.16;311864;31;3129;-76
2023/04/24 00:13:08;;;;;;;317.65;127.68;;;;;;;13.09;72.23;99441.13;308849;31;4885;-75
2023/04/24 00:13:19;;;;;;;314.90;127.63;;;;;;;13.07;72.28;99430.69;315985;31;3005;-75
2023/04/24 00:13:30;;;;;;;313.27;126.28;;;;;;;13.09;72.44;99439.34;316110;31;2775;-75
2023/04/24 00:13:40;;;;;;;314.53;127.10;;;;;;;13.09;72.35;99438.50;314449;31;3297;-75
2023/04/24 00:13:50;;;;;;;311.92;125.53;;;;;;;13.07;72.35;99438.56;313307;31;3299;-75
2023/04/24 00:14:01;;;;;;;312.03;127.20;;;;;;;13.10;72.50;99440.19;314095;31;3811;-75
2023/04/24 00:14:11;;;;;;;313.15;128.75;;;;;;;13.07;72.40;99429.84;315559;30;4879;-75
2023/04/24 00:14:21;;;;;;;317.23;129.83;;;;;;;13.06;72.41;99438.66;315681;31;1304;-75
2023/04/24 00:14:32;;;;;;;321.30;128.00;;;;;;;13.06;72.49;99436.88;313669;31;3216;-75
2023/04/24 00:14:42;;;;;;;319.95;126.20;;;;;;;13.06;72.78;99433.41;312324;31;3335;-74
2023/04/24 00:14:53;;;;;;;316.67;126.63;;;;;;;13.06;72.33;99434.25;313931;31;1196;-75
2023/04/24 00:15:04;;;;;;;314.88;126.15;;;;;;;13.04;72.93;99433.47;314395;31;3168;-75
2023/04/24 00:15:14;;;;;;;313.85;123.70;;;;;;;13.02;73.09;99426.59;312744;31;3223;-75
2023/04/24 00:15:24;;;;;;;316.47;126.53;;;;;;;13.01;73.13;99433.63;307450;31;4666;-75
2023/04/24 00:15:35;;;;;;;318.42;127.47;;;;;;;12.99;73.07;99438.16;308055;31;3693;-75
2023/04/24 00:15:45;;;;;;;320.63;129.53;;;;;;;12.93;73.65;99427.97;305494;32;3949;-75
2023/04/24 00:15:56;;;;;;;320.60;127.43;;;;;;;12.93;73.66;99434.09;306368;32;1273;-75
2023/04/24 00:16:06;;;;;;;316.83;126.20;;;;;;;12.92;73.41;99435.00;301953;32;3549;-75
2023/04/24 00:16:16;;;;;;;316.67;126.83;;;;;;;12.92;73.55;99435.00;300439;32;4610;-75
2023/04/24 00:16:27;;;;;;;316.60;125.80;;;;;;;12.91;73.46;99432.47;298225;32;5024;-75
2023/04/24 00:16:38;;;;;;;318.45;128.10;;;;;;;12.91;73.93;99428.06;298919;33;5268;-75
2023/04/24 00:16:48;;;;;;;321.13;129.97;;;;;;;12.89;73.64;99427.28;300443;32;4357;-75
2023/04/24 00:16:58;;;;;;;320.75;130.32;;;;;;;12.89;74.00;99427.28;299974;32;2788;-75
2023/04/24 00:17:09;;;;;;;315.07;125.80;;;;;;;12.89;74.24;99434.31;300181;32;1512;-75
2023/04/24 00:17:20;;;;;;;314.53;125.87;;;;;;;12.87;74.49;99429.16;300902;32;3406;-75
2023/04/24 00:17:30;;;;;;;316.88;128.20;;;;;;;12.83;75.12;99426.78;295752;32;4511;-74
2023/04/24 00:17:41;;;;;;;319.40;130.80;;;;;;;12.83;74.66;99430.25;294066;32;5232;-75
2023/04/24 00:17:53;;;;;;;323.00;132.37;;;;;;;12.83;74.99;99432.88;299824;32;3164;-75
2023/04/24 00:18:03;;;;;;;320.33;129.07;;;;;;;12.82;74.92;99431.16;298011;33;5447;-75
2023/04/24 00:18:14;;;;;;;313.45;125.03;;;;;;;12.84;74.71;99429.31;295867;33;5981;-74
2023/04/24 00:18:24;;;;;;;313.63;124.83;;;;;;;12.86;74.99;99435.34;296483;33;2939;-75
2023/04/24 00:18:34;;;;;;;315.42;127.80;;;;;;;12.87;74.93;99434.41;291009;33;6381;-75
2023/04/24 00:18:45;;;;;;;318.07;128.60;;;;;;;12.86;74.85;99427.44;289496;33;6357;-75
2023/04/24 00:18:55;;;;;;;319.50;130.07;;;;;;;12.86;75.11;99432.72;286946;34;5168;-75
2023/04/24 00:19:06;;;;;;;318.47;128.47;;;;;;;12.88;74.78;99430.84;291959;33;5861;-75
2023/04/24 00:19:16;;;;;;;315.42;127.20;;;;;;;12.87;74.88;99430.94;291830;33;4148;-75
2023/04/24 00:19:27;;;;;;;314.70;127.30;;;;;;;12.88;75.03;99436.09;288505;34;5211;-74
2023/04/24 00:19:37;;;;;;;314.38;127.40;;;;;;;12.89;75.00;99442.19;284915;34;3031;-75
2023/04/24 00:19:48;;;;;;;315.73;127.13;;;;;;;12.84;75.23;99434.56;284004;34;6010;-77
2023/04/24 00:19:58;;;;;;;319.77;127.80;;;;;;;12.82;75.39;99431.16;283554;34;8369;-75
2023/04/24 00:20:10;;;;;;;321.00;129.10;;;;;;;12.82;75.27;99441.69;282692;35;952;-75
2023/04/24 00:20:21;;;;;;;318.33;126.32;;;;;;;12.80;75.38;99435.66;278485;34;8249;-75
2023/04/24 00:20:35;;;;;;;318.42;127.57;;;;;;;12.80;75.22;99438.28;276423;34;8610;-75
2023/04/24 00:20:46;;;;;;;316.58;127.82;;;;;;;12.77;75.62;99435.81;276603;35;9255;-75
2023/04/24 00:20:56;;;;;;;316.73;127.88;;;;;;;12.77;75.35;99432.34;273225;35;8922;-75
2023/04/24 00:21:07;;;;;;;314.17;126.90;;;;;;;12.77;75.00;99432.34;275012;35;4225;-75
2023/04/24 00:21:17;;;;;;;314.33;128.00;;;;;;;12.73;74.97;99436.91;273405;35;9363;-75
2023/04/24 00:21:28;;;;;;;316.48;128.05;;;;;;;12.73;74.88;99434.28;271981;35;6245;-75
2023/04/24 00:21:38;;;;;;;315.10;126.37;;;;;;;12.74;74.77;99433.34;273193;36;859;-75
2023/04/24 00:23:12;;;;;;;305.96;119.39;;;;;;;12.67;74.85;99431.97;2486631;27;20384;-74
2023/04/24 00:23:23;;;;;;;312.90;124.53;;;;;;;12.67;74.83;99431.97;351801;28;5231;-74
2023/04/24 00:23:33;;;;;;;315.08;124.78;;;;;;;12.68;74.64;99438.06;351731;28;1313;-74
2023/04/24 00:23:44;;;;;;;313.83;124.10;;;;;;;12.67;74.67;99434.59;347613;28;955;-75
2023/04/24 00:23:54;;;;;;;309.88;121.88;;;;;;;12.66;74.36;99438.16;346387;28;1339;-75
2023/04/24 00:24:05;;;;;;;307.67;122.13;;;;;;;12.65;74.62;99428.56;346260;28;3722;-75
2023/04/24 00:24:16;;;;;;;309.37;123.73;;;;;;;12.66;74.52;99432.91;345471;28;4902;-75
2023/04/24 00:24:27;;;;;;;313.63;125.10;;;;;;;12.65;74.66;99428.56;348581;28;1402;-75
2023/04/24 00:24:37;;;;;;;317.70;125.70;;;;;;;12.66;74.42;99436.38;350154;28;3037;-75
2023/04/24 00:24:48;;;;;;;314.88;121.13;;;;;;;12.62;74.58;99428.72;350302;28;1410;-75
2023/04/24 00:24:58;;;;;;;312.20;121.70;;;;;;;12.64;74.71;99434.75;348777;28;1291;-76
2023/04/24 00:25:08;;;;;;;312.42;123.32;;;;;;;12.58;74.87;99427.19;346262;28;3148;-76
2023/04/24 00:25:19;;;;;;;315.63;125.97;;;;;;;12.58;74.33;99435.06;344862;28;4933;-75
2023/04/24 00:25:29;;;;;;;314.60;122.87;;;;;;;12.58;74.56;99424.56;348470;28;3263;-75
2023/04/24 00:25:40;;;;;;;318.93;125.23;;;;;;;12.58;74.75;99427.19;350084;28;2033;-75
2023/04/24 00:25:50;;;;;;;318.20;124.63;;;;;;;12.57;74.50;99425.50;348751;28;1203;-75
2023/04/24 00:26:00;;;;;;;319.70;126.68;;;;;;;12.60;74.54;99425.34;347476;28;1569;-75
2023/04/24 00:26:11;;;;;;;312.70;122.90;;;;;;;12.61;74.64;99427.88;346080;28;3762;-75
2023/04/24 00:26:21;;;;;;;310.27;122.72;;;;;;;12.61;74.88;99432.28;345479;28;4492;-75
2023/04/24 00:26:31;;;;;;;312.20;123.87;;;;;;;12.61;74.72;99427.03;346134;28;3197;-75
2023/04/24 00:26:42;;;;;;;318.50;126.50;;;;;;;12.64;74.57;99432.13;347431;28;1560;-75
2023/04/24 00:26:52;;;;;;;318.80;126.63;;;;;;;12.65;74.44;99424.16;347662;28;3247;-75
2023/04/24 00:27:03;;;;;;;316.43;126.87;;;;;;;12.64;74.70;99432.13;347273;28;1416;-75
2023/04/24 00:27:13;;;;;;;310.00;123.82;;;;;;;12.65;74.49;99423.31;346938;28;3459;-75
2023/04/24 00:27:24;;;;;;;310.23;124.60;;;;;;;12.66;74.50;99425.88;345857;28;4925;-75
2023/04/24 00:27:36;;;;;;;312.33;126.45;;;;;;;12.64;74.58;99417.22;343568;28;1323;-75
2023/04/24 00:27:46;;;;;;;317.27;129.05;;;;;;;12.67;74.39;99416.22;344717;28;1562;-75
2023/04/24 00:27:57;;;;;;;315.70;125.05;;;;;;;12.67;74.42;99424.09;347522;28;3193;-75
2023/04/24 00:28:07;;;;;;;313.33;122.27;;;;;;;12.67;74.40;99421.47;347098;28;860;-75
2023/04/24 00:28:18;;;;;;;310.27;121.43;;;;;;;12.65;74.17;99421.53;347024;28;3656;-75
2023/04/24 00:28:28;;;;;;;310.77;124.07;;;;;;;12.69;73.93;99424.00;346573;28;2706;-75
2023/04/24 00:28:38;;;;;;;312.43;125.87;;;;;;;12.67;73.88;99421.47;347037;28;5398;-75
2023/04/24 00:28:49;;;;;;;316.85;127.72;;;;;;;12.65;74.04;99425.94;347339;28;1611;-75
2023/04/24 00:28:59;;;;;;;315.17;126.20;;;;;;;12.65;73.97;99418.91;346012;28;3075;-75
2023/04/24 00:29:10;;;;;;;312.88;124.80;;;;;;;12.64;74.06;99421.63;341793;28;1622;-75
2023/04/24 00:29:20;;;;;;;309.67;123.13;;;;;;;12.65;73.76;99423.31;339847;29;1198;-75
2023/04/24 00:29:30;;;;;;;310.45;123.22;;;;;;;12.63;73.84;99419.94;340887;28;2140;-75
2023/04/24 00:29:41;;;;;;;310.70;124.87;;;;;;;12.64;73.79;99416.38;340306;28;4900;-75
2023/04/24 00:29:51;;;;;;;308.47;124.00;;;;;;;12.64;73.95;99416.38;340968;28;5250;-75
2023/04/24 00:30:02;;;;;;;314.85;127.50;;;;;;;12.65;73.81;99424.16;339487;29;1050;-75
2023/04/24 00:30:12;;;;;;;315.58;127.20;;;;;;;12.66;73.68;99425.88;339558;29;1222;-75
2023/04/24 00:30:23;;;;;;;317.40;127.20;;;;;;;12.66;73.68;99420.63;336839;29;1419;-75
2023/04/24 00:30:33;;;;;;;313.98;124.07;;;;;;;12.68;73.77;99427.56;339580;28;2993;-75
2023/04/24 00:30:44;;;;;;;315.43;125.40;;;;;;;12.68;73.31;99419.69;335936;29;4876;-75
2023/04/24 00:30:54;;;;;;;314.60;125.97;;;;;;;12.67;73.83;99421.47;339264;29;4983;-75
2023/04/24 00:31:04;;;;;;;316.95;128.20;;;;;;;12.63;73.41;99419.94;341396;28;1257;-75
2023/04/24 00:31:15;;;;;;;314.83;126.57;;;;;;;12.64;73.75;99426.88;340915;28;2925;-75
2023/04/24 00:31:25;;;;;;;312.70;124.55;;;;;;;12.64;73.95;99417.22;342581;28;1710;-76
2023/04/24 00:31:35;;;;;;;308.73;120.90;;;;;;;12.64;73.93;99422.47;338498;29;3780;-77
2023/04/24 00:31:46;;;;;;;311.45;123.50;;;;;;;12.64;74.07;99424.25;337759;28;2995;-75
2023/04/24 00:31:56;;;;;;;313.43;124.90;;;;;;;12.63;73.78;99425.19;340239;29;3465;-75
2023/04/24 00:32:07;;;;;;;318.60;129.23;;;;;;;12.61;74.02;99427.03;340451;29;1989;-75
2023/04/24 00:32:17;;;;;;;316.73;126.37;;;;;;;12.61;74.03;99427.03;338058;29;5375;-75
2023/04/24 00:32:28;;;;;;;317.07;127.57;;;;;;;12.61;73.99;99427.88;336702;29;1663;-75
2023/04/24 00:32:38;;;;;;;311.20;123.38;;;;;;;12.58;73.98;99420.16;332614;29;3620;-75
2023/04/24 00:32:48;;;;;;;312.13;125.10;;;;;;;12.58;73.71;99419.31;330727;29;5169;-75
2023/04/24 00:32:59;;;;;;;310.20;122.38;;;;;;;12.59;74.02;99423.63;331767;29;1340;-75
2023/04/24 00:33:09;;;;;;;318.40;126.57;;;;;;;12.59;73.87;99427.13;333858;29;1374;-75
2023/04/24 00:33:20;;;;;;;319.83;126.63;;;;;;;12.60;73.89;99420.94;330551;29;1804;-75
2023/04/24 00:33:30;;;;;;;321.95;128.15;;;;;;;12.61;73.92;99424.41;327464;30;899;-75
2023/04/24 00:33:41;;;;;;;314.67;126.57;;;;;;;12.60;74.26;99427.97;329343;29;3689;-75
2023/04/24 00:33:51;;;;;;;313.00;127.70;;;;;;;12.58;74.31;99424.56;327550;30;3133;-75
2023/04/24 00:34:02;;;;;;;316.40;129.73;;;;;;;12.57;74.19;99420.25;324003;30;4861;-75
2023/04/24 00:34:12;;;;;;;317.98;127.95;;;;;;;12.59;74.43;99428.88;325481;30;5392;-76
2023/04/24 00:34:23;;;;;;;317.87;126.07;;;;;;;12.58;74.41;99421.94;325833;30;1648;-75
2023/04/24 00:34:33;;;;;;;316.00;125.53;;;;;;;12.56;74.69;99426.47;327021;30;1181;-75
2023/04/24 00:34:43;;;;;;;317.67;122.72;;;;;;;12.53;74.43;99421.38;330289;29;3458;-75
2023/04/24 00:34:54;;;;;;;317.07;120.73;;;;;;;12.54;74.73;99417.81;327375;29;2700;-75
2023/04/24 00:35:05;;;;;;;316.88;119.30;;;;;;;12.51;74.93;99417.97;327052;29;1796;-75
2023/04/24 00:35:16;;;;;;;316.00;122.88;;;;;;;12.53;74.63;99424.00;325744;30;907;-75
2023/04/24 00:35:26;;;;;;;317.80;124.88;;;;;;;12.49;74.92;99422.44;321276;30;3365;-75
2023/04/24 00:35:37;;;;;;;315.63;126.20;;;;;;;12.53;74.91;99434.50;324569;30;2407;-75
2023/04/24 00:35:47;;;;;;;311.02;124.65;;;;;;;12.51;74.95;99418.81;319038;30;3657;-75
2023/04/24 00:35:57;;;;;;;311.03;125.03;;;;;;;12.52;75.03;99422.28;317267;30;3508;-75
2023/04/24 00:36:08;;;;;;;311.50;123.97;;;;;;;12.52;74.77;99424.91;318680;30;3140;-75
2023/04/24 00:36:20;;;;;;;313.77;125.67;;;;;;;12.51;74.82;99420.59;319421;30;2822;-75
2023/04/24 00:36:30;;;;;;;314.27;124.80;;;;;;;12.50;74.74;99418.91;319585;30;2948;-75
2023/04/24 00:36:41;;;;;;;313.27;124.43;;;;;;;12.50;74.55;99419.75;320598;30;1842;-75
2023/04/24 00:36:52;;;;;;;308.17;121.57;;;;;;;12.51;74.83;99423.22;321722;30;3613;-75
2023/04/24 00:37:02;;;;;;;314.73;124.97;;;;;;;12.49;74.91;99425.91;318965;30;4863;-75
2023/04/24 00:37:12;;;;;;;316.27;126.63;;;;;;;12.48;74.93;99418.13;321388;30;3228;-75
2023/04/24 00:37:23;;;;;;;321.73;131.50;;;;;;;12.49;74.70;99417.19;321040;30;2338;-75
2023/04/24 00:37:33;;;;;;;320.00;131.63;;;;;;;12.47;74.77;99417.28;318806;30;3362;-75
2023/04/24 00:37:44;;;;;;;319.10;130.18;;;;;;;12.49;74.91;99422.44;318153;31;1412;-75
2023/04/24 00:37:54;;;;;;;312.03;124.40;;;;;;;12.46;74.75;99423.44;316739;30;3694;-75
2023/04/24 00:38:05;;;;;;;311.60;123.57;;;;;;;12.48;74.99;99426.00;315215;31;3297;-75
2023/04/24 00:38:15;;;;;;;313.65;124.50;;;;;;;12.47;74.70;99419.91;315417;31;5384;-75
2023/04/24 00:38:26;;;;;;;320.00;127.47;;;;;;;12.47;74.80;99416.44;318781;30;3434;-75
2023/04/24 00:38:36;;;;;;;318.77;126.87;;;;;;;12.48;74.97;99426.00;316473;31;3340;-75
2023/04/24 00:38:47;;;;;;;317.35;126.72;;;;;;;12.44;74.83;99422.69;317049;30;2676;-75
2023/04/24 00:38:57;;;;;;;309.70;123.77;;;;;;;12.43;74.87;99420.13;315603;31;3720;-75
2023/04/24 00:39:08;;;;;;;312.05;124.50;;;;;;;12.43;74.95;99422.75;313995;31;3147;-75
2023/04/24 00:39:19;;;;;;;313.63;123.95;;;;;;;12.44;74.97;99411.34;312809;30;5086;-75
2023/04/24 00:39:29;;;;;;;314.70;124.18;;;;;;;12.41;74.91;99422.00;318629;30;3478;-75
2023/04/24 00:39:40;;;;;;;313.90;124.77;;;;;;;12.40;75.02;99423.75;316653;31;3319;-76
2023/04/24 00:39:50;;;;;;;313.50;125.13;;;;;;;12.41;74.89;99425.47;312139;31;3865;-75
2023/04/24 00:40:01;;;;;;;312.47;125.27;;;;;;;12.40;75.08;99422.91;307004;32;3601;-75
2023/04/24 00:40:11;;;;;;;311.93;124.93;;;;;;;12.38;75.21;99419.53;308621;31;5761;-75
2023/04/24 00:40:21;;;;;;;312.17;125.50;;;;;;;12.40;75.23;99417.66;307229;31;4574;-75
2023/04/24 00:40:32;;;;;;;312.83;125.43;;;;;;;12.38;75.18;99415.13;307371;31;4816;-75
2023/04/24 00:40:42;;;;;;;314.92;126.43;;;;;;;12.39;75.06;99413.34;308552;31;4694;-75
2023/04/24 00:40:53;;;;;;;320.37;127.73;;;;;;;12.39;75.18;99421.22;306535;32;4418;-76
2023/04/24 00:41:04;;;;;;;322.88;128.27;;;;;;;12.38;75.22;99415.13;307458;31;5315;-75
2023/04/24 00:41:15;;;;;;;319.47;127.27;;;;;;;12.39;75.25;99421.22;307718;32;5093;-76
2023/04/24 00:41:25;;;;;;;314.95;125.88;;;;;;;12.40;75.35;99415.03;308523;31;3458;-76
2023/04/24 00:41:36;;;;;;;312.13;122.60;;;;;;;12.41;75.42;99419.38;306554;32;4172;-76
2023/04/24 00:41:47;;;;;;;311.57;122.87;;;;;;;12.37;75.65;99417.81;301734;32;6093;-75
2023/04/24 00:41:58;;;;;;;314.10;125.07;;;;;;;12.40;75.43;99415.03;302157;32;5157;-75
2023/04/24 00:42:09;;;;;;;316.25;126.40;;;;;;;12.37;75.24;99418.66;301167;32;5354;-75
2023/04/24 00:42:20;;;;;;;318.03;128.20;;;;;;;12.39;75.70;99410.72;298625;32;6738;-75
2023/04/24 00:42:30;;;;;;;316.73;127.25;;;;;;;12.40;75.25;99418.50;299056;33;854;-75
2023/04/24 00:42:41;;;;;;;312.60;124.85;;;;;;;12.40;75.22;99423.75;294961;33;6650;-75
2023/04/24 00:42:51;;;;;;;309.53;120.93;;;;;;;12.40;75.20;99421.13;293794;33;6115;-75
2023/04/24 00:43:01;;;;;;;310.07;121.50;;;;;;;12.39;75.30;99410.72;291478;33;6361;-75
2023/04/24 00:43:12;;;;;;;312.67;123.95;;;;;;;12.38;75.27;99411.66;289799;34;5289;-75
2023/04/24 00:43:22;;;;;;;319.40;128.17;;;;;;;12.40;75.32;99423.75;289164;33;4819;-75
2023/04/24 00:43:32;;;;;;;317.83;125.53;;;;;;;12.39;75.38;99418.59;287450;34;5404;-75
2023/04/24 00:43:43;;;;;;;314.67;123.87;;;;;;;12.38;75.13;99420.38;286753;34;3191;-75
2023/04/24 00:43:53;;;;;;;308.98;121.00;;;;;;;12.39;75.74;99421.22;283378;34;6638;-75
2023/04/24 00:44:04;;;;;;;309.47;122.30;;;;;;;12.40;75.47;99413.25;279688;34;7008;-75
2023/04/24 00:44:14;;;;;;;312.20;123.50;;;;;;;12.39;75.07;99418.59;282206;34;3119;-75
2023/04/24 00:44:25;;;;;;;316.83;125.53;;;;;;;12.42;74.98;99427.16;281826;34;7989;-75
2023/04/24 00:44:35;;;;;;;316.98;124.28;;;;;;;12.41;75.02;99424.63;281976;34;9153;-75
2023/04/24 00:44:46;;;;;;;315.97;124.07;;;;;;;12.36;75.27;99421.38;285440;34;1236;-75
2023/04/24 00:46:54;;;;;;;305.91;117.16;;;;;;;12.20;75.55;99421.28;2492632;27;20299;-75
2023/04/24 00:47:04;;;;;;;306.17;115.60;;;;;;;12.18;75.39;99418.75;351714;28;893;-75
2023/04/24 00:47:15;;;;;;;307.57;118.67;;;;;;;12.17;75.74;99424.91;349580;28;3496;-75
2023/04/24 00:47:25;;;;;;;308.40;117.70;;;;;;;12.16;75.81;99417.97;345689;28;4526;-75
2023/04/24 00:47:36;;;;;;;311.23;120.97;;;;;;;12.15;76.14;99423.31;349171;28;3150;-75
2023/04/24 00:47:46;;;;;;;315.67;120.90;;;;;;;12.16;76.25;99420.59;350398;28;898;-75
2023/04/24 00:47:57;;;;;;;316.43;120.20;;;;;;;12.14;76.22;99417.19;348178;28;1132;-75
2023/04/24 00:48:07;;;;;;;315.48;121.22;;;;;;;12.14;76.17;99416.34;347609;28;1027;-75
2023/04/24 00:48:18;;;;;;;313.93;121.20;;;;;;;12.14;76.31;99427.69;346066;28;3611;-75
2023/04/24 00:48:28;;;;;;;313.15;122.82;;;;;;;12.17;76.36;99424.06;345224;28;2909;-75
2023/04/24 00:48:39;;;;;;;314.47;122.50;;;;;;;12.18;76.10;99418.75;348138;28;5335;-75
2023/04/24 00:48:49;;;;;;;318.17;125.25;;;;;;;12.17;75.98;99422.31;350119;28;1296;-75
2023/04/24 00:49:00;;;;;;;316.50;124.63;;;;;;;12.15;76.32;99418.91;348671;28;5485;-75
2023/04/24 00:49:10;;;;;;;314.93;123.73;;;;;;;12.11;76.35;99411.28;348950;28;793;-75
2023/04/24 00:49:21;;;;;;;312.03;121.50;;;;;;;12.17;76.14;99416.19;349660;28;3656;-75
2023/04/24 00:49:31;;;;;;;316.30;122.63;;;;;;;12.15;76.40;99418.91;346571;28;4590;-75
2023/04/24 00:49:42;;;;;;;316.58;122.95;;;;;;;12.17;76.34;99417.06;348630;28;4980;-74
2023/04/24 00:49:52;;;;;;;322.07;125.23;;;;;;;12.19;76.17;99414.34;347597;28;812;-75
2023/04/24 00:50:06;;;;;;;318.45;123.78;;;;;;;12.18;76.31;99417.91;345967;28;3201;-75
2023/04/24 00:50:17;;;;;;;312.56;119.64;;;;;;;12.18;76.32;99421.38;347292;28;3125;-75
2023/04/24 00:50:27;;;;;;;308.93;119.47;;;;;;;12.16;76.24;99420.59;346124;28;2627;-75
2023/04/24 00:50:38;;;;;;;309.00;120.38;;;;;;;12.16;76.19;99410.09;346521;28;3214;-75
2023/04/24 00:50:48;;;;;;;313.10;121.40;;;;;;;12.20;76.00;99418.66;347784;28;3593;-75
2023/04/24 00:50:59;;;;;;;313.80;121.33;;;;;;;12.20;75.79;99421.28;343700;28;3803;-75
2023/04/24 00:51:09;;;;;;;316.30;124.07;;;;;;;12.22;75.98;99425.53;346409;28;1209;-75
2023/04/24 00:51:20;;;;;;;316.88;123.00;;;;;;;12.21;76.14;99421.22;345983;28;1692;-75
2023/04/24 00:51:32;;;;;;;314.42;120.78;;;;;;;12.20;76.33;99419.53;345684;28;3448;-75
2023/04/24 00:51:45;;;;;;;314.52;120.57;;;;;;;12.21;76.20;99415.97;347067;28;900;-75
2023/04/24 00:51:56;;;;;;;309.70;121.00;;;;;;;12.21;76.21;99418.59;344027;28;3578;-75
2023/04/24 00:52:08;;;;;;;311.73;121.53;;;;;;;12.22;76.36;99428.16;343349;28;4412;-75
2023/04/24 00:52:20;;;;;;;309.63;120.78;;;;;;;12.18;76.57;99418.75;342439;28;5404;-74